Time;durP1;ratioP1;P1;durP2;ratioP2;P2;SDS_P1;SDS_P2;PMS_P1;PMS_P2;Temp;Humidity;BMP_temperature;BMP_pressure;BME280_temperature;BME280_humidity;BME280_pressure;Samples;Min_cycle;Max_cycle;Signal;HPM_P1;HPM_P2
2020/12/09 00:01:50;;;;;;;10.55;9.45;;;;;;;;;;5123979;27;20036;-60
2020/12/09 00:04:17;;;;;;;11.85;8.80;;;;;;;;;;5120356;27;20026;-60
2020/12/09 00:06:43;;;;;;;10.10;9.10;;;;;;;;;;5127254;27;20031;-60
2020/12/09 00:09:10;;;;;;;10.23;8.90;;;;;;;;;;5118476;27;20024;-61
2020/12/09 00:11:36;;;;;;;10.38;9.25;;;;;;;;;;5123940;27;20034;-61
2020/12/09 00:14:03;;;;;;;10.47;9.30;;;;;;;;;;5119095;27;20938;-61
2020/12/09 00:16:29;;;;;;;11.13;9.52;;;;;;;;;;5124595;27;20019;-61
2020/12/09 00:18:56;;;;;;;10.30;9.30;;;;;;;;;;5121812;27;20026;-61
2020/12/09 00:21:23;;;;;;;10.43;9.33;;;;;;;;;;5123409;27;20031;-61
2020/12/09 00:23:49;;;;;;;10.33;9.33;;;;;;;;;;5120224;27;20055;-61
2020/12/09 00:26:19;;;;;;;11.87;10.30;;;;;;;;;;5125292;27;20085;-61
2020/12/09 00:28:45;;;;;;;13.52;10.70;;;;;;;;;;5121358;27;20045;-60
2020/12/09 00:31:13;;;;;;;9.90;8.90;;;;;;;;;;5120241;27;20101;-60
2020/12/09 00:33:39;;;;;;;10.35;9.25;;;;;;;;;;5123923;27;20038;-61
2020/12/09 00:36:05;;;;;;;11.57;9.40;;;;;;;;;;5119846;27;20027;-60
2020/12/09 00:38:31;;;;;;;10.00;8.98;;;;;;;;;;5122940;27;20030;-62
2020/12/09 00:40:57;;;;;;;12.25;10.45;;;;;;;;;;5119694;27;20027;-61
2020/12/09 00:43:23;;;;;;;10.68;9.57;;;;;;;;;;5125587;27;20031;-60
2020/12/09 00:45:49;;;;;;;10.00;8.65;;;;;;;;;;5126637;27;20491;-60
2020/12/09 00:48:15;;;;;;;11.23;9.97;;;;;;;;;;5123063;27;20031;-62
2020/12/09 00:50:41;;;;;;;9.63;8.30;;;;;;;;;;5106815;27;20175;-61
2020/12/09 00:53:07;;;;;;;11.50;9.57;;;;;;;;;;5110374;27;20051;-61
2020/12/09 00:55:33;;;;;;;10.27;9.27;;;;;;;;;;5123479;27;20464;-61
2020/12/09 00:57:59;;;;;;;11.40;9.87;;;;;;;;;;5105636;27;20437;-61
2020/12/09 01:00:25;;;;;;;9.47;8.53;;;;;;;;;;5120415;27;20075;-61
2020/12/09 01:02:51;;;;;;;10.60;9.50;;;;;;;;;;5123272;27;20024;-61
2020/12/09 01:05:17;;;;;;;12.27;9.10;;;;;;;;;;5121072;27;20084;-60
2020/12/09 01:07:43;;;;;;;10.13;7.95;;;;;;;;;;5108223;27;20035;-61
2020/12/09 01:10:10;;;;;;;10.10;8.93;;;;;;;;;;5124505;27;20027;-61
2020/12/09 01:12:40;;;;;;;11.00;9.53;;;;;;;;;;5119679;27;20108;-61
2020/12/09 01:15:06;;;;;;;9.50;7.83;;;;;;;;;;5122227;27;20023;-61
2020/12/09 01:17:33;;;;;;;9.05;8.13;;;;;;;;;;5118510;27;20527;-60
2020/12/09 01:19:59;;;;;;;9.70;8.77;;;;;;;;;;5121833;27;20031;-60
2020/12/09 01:22:25;;;;;;;9.13;8.20;;;;;;;;;;5123591;27;20031;-60
2020/12/09 01:24:51;;;;;;;9.70;8.50;;;;;;;;;;5125884;27;20143;-60
2020/12/09 01:27:22;;;;;;;9.90;8.60;;;;;;;;;;5121110;27;20069;-60
2020/12/09 01:29:48;;;;;;;8.90;7.70;;;;;;;;;;5125245;27;20161;-61
2020/12/09 01:32:14;;;;;;;9.67;8.63;;;;;;;;;;5119468;27;20118;-61
2020/12/09 01:34:40;;;;;;;8.77;7.88;;;;;;;;;;5121065;27;20032;-61
2020/12/09 01:37:06;;;;;;;9.63;8.73;;;;;;;;;;5117850;27;20182;-61
2020/12/09 01:39:32;;;;;;;10.57;9.35;;;;;;;;;;5123167;27;20477;-61
2020/12/09 01:41:58;;;;;;;12.07;10.87;;;;;;;;;;5119178;27;20098;-61
2020/12/09 01:44:24;;;;;;;11.67;10.57;;;;;;;;;;5107039;27;20027;-61
2020/12/09 01:46:50;;;;;;;14.60;12.55;;;;;;;;;;5123470;27;20027;-60
2020/12/09 01:49:17;;;;;;;13.47;11.47;;;;;;;;;;5118282;27;20031;-61
2020/12/09 01:51:43;;;;;;;12.55;11.25;;;;;;;;;;5128506;27;20079;-61
2020/12/09 01:54:09;;;;;;;13.23;11.93;;;;;;;;;;5117971;27;20146;-61
2020/12/09 01:56:35;;;;;;;14.00;12.50;;;;;;;;;;5120475;27;20476;-61
2020/12/09 01:59:01;;;;;;;13.73;12.33;;;;;;;;;;5116653;27;20027;-60
2020/12/09 02:01:27;;;;;;;14.63;13.13;;;;;;;;;;5128392;27;20039;-60
2020/12/09 02:03:53;;;;;;;14.90;13.33;;;;;;;;;;5118426;27;20031;-60
2020/12/09 02:06:19;;;;;;;18.03;13.83;;;;;;;;;;5122447;27;20040;-60
2020/12/09 02:08:46;;;;;;;16.27;14.57;;;;;;;;;;5121341;27;20031;-61
2020/12/09 02:11:12;;;;;;;18.10;15.33;;;;;;;;;;5118469;27;20484;-60
2020/12/09 02:13:42;;;;;;;17.10;15.30;;;;;;;;;;5122306;27;20531;-61
2020/12/09 02:16:08;;;;;;;16.80;15.10;;;;;;;;;;5122968;27;20020;-61
2020/12/09 02:18:34;;;;;;;15.57;13.97;;;;;;;;;;5118587;27;20094;-61
2020/12/09 02:21:00;;;;;;;15.80;14.20;;;;;;;;;;5124095;27;20107;-61
2020/12/09 02:23:26;;;;;;;17.07;14.40;;;;;;;;;;5121783;27;20544;-60
2020/12/09 02:25:52;;;;;;;15.40;13.80;;;;;;;;;;5123290;27;20102;-60
2020/12/09 02:28:18;;;;;;;18.03;15.83;;;;;;;;;;5109732;27;20035;-60
2020/12/09 02:30:44;;;;;;;16.87;15.10;;;;;;;;;;5120610;27;20488;-61
2020/12/09 02:33:10;;;;;;;16.50;14.73;;;;;;;;;;5126286;27;20023;-61
2020/12/09 02:35:36;;;;;;;16.63;14.37;;;;;;;;;;5125268;27;20030;-61
2020/12/09 02:38:03;;;;;;;13.77;12.43;;;;;;;;;;5128289;27;20476;-60
2020/12/09 02:40:29;;;;;;;15.30;13.70;;;;;;;;;;5123544;27;20031;-60
2020/12/09 02:42:55;;;;;;;14.43;13.03;;;;;;;;;;5128469;27;20023;-62
2020/12/09 02:45:21;;;;;;;15.50;13.90;;;;;;;;;;5103692;27;20035;-61
2020/12/09 02:47:47;;;;;;;15.47;13.90;;;;;;;;;;5126909;27;20084;-61
2020/12/09 02:50:13;;;;;;;12.80;11.60;;;;;;;;;;5121879;27;20058;-62
2020/12/09 02:52:39;;;;;;;14.40;12.70;;;;;;;;;;5113896;27;20484;-62
2020/12/09 02:55:05;;;;;;;12.20;11.00;;;;;;;;;;5123584;27;20061;-61
2020/12/09 02:57:31;;;;;;;11.00;9.90;;;;;;;;;;5128064;27;20054;-61
2020/12/09 02:59:57;;;;;;;11.53;10.30;;;;;;;;;;5121805;27;20078;-61
2020/12/09 03:02:23;;;;;;;11.40;10.23;;;;;;;;;;5125870;27;20043;-61
2020/12/09 03:04:49;;;;;;;11.90;9.93;;;;;;;;;;5110899;27;20408;-61
2020/12/09 03:07:15;;;;;;;11.32;10.13;;;;;;;;;;5122489;27;20028;-61
2020/12/09 03:09:41;;;;;;;12.00;10.27;;;;;;;;;;5128841;27;20022;-61
2020/12/09 03:12:07;;;;;;;11.17;9.90;;;;;;;;;;5123997;27;20023;-61
2020/12/09 03:14:33;;;;;;;12.37;10.40;;;;;;;;;;5127245;27;20492;-60
2020/12/09 03:16:59;;;;;;;10.45;9.48;;;;;;;;;;5125479;27;20110;-61
2020/12/09 03:19:25;;;;;;;13.75;10.63;;;;;;;;;;5127099;27;20024;-61
2020/12/09 03:21:51;;;;;;;10.87;9.87;;;;;;;;;;5127718;27;20473;-61
2020/12/09 03:24:17;;;;;;;11.73;10.53;;;;;;;;;;5123763;27;20030;-61
2020/12/09 03:26:43;;;;;;;12.07;10.70;;;;;;;;;;5120991;27;20032;-61
2020/12/09 03:29:09;;;;;;;11.07;9.97;;;;;;;;;;5125276;27;20034;-61
2020/12/09 03:31:35;;;;;;;12.02;10.70;;;;;;;;;;5122222;27;20023;-61
2020/12/09 03:34:01;;;;;;;11.30;9.97;;;;;;;;;;5124560;27;20051;-61
2020/12/09 03:36:27;;;;;;;9.57;8.68;;;;;;;;;;5122131;27;21550;-61
2020/12/09 03:38:53;;;;;;;11.30;10.20;;;;;;;;;;5127642;27;20378;-62
2020/12/09 03:41:19;;;;;;;12.00;10.85;;;;;;;;;;5120462;27;20032;-62
2020/12/09 03:43:45;;;;;;;12.57;11.27;;;;;;;;;;5122826;27;20066;-61
2020/12/09 03:46:11;;;;;;;11.82;10.60;;;;;;;;;;5126928;27;20034;-61
2020/12/09 03:48:37;;;;;;;12.93;10.70;;;;;;;;;;5109749;27;20023;-61
2020/12/09 03:51:03;;;;;;;14.23;12.43;;;;;;;;;;5126004;27;20428;-61
2020/12/09 03:53:32;;;;;;;10.90;9.40;;;;;;;;;;5118558;27;20030;-61
2020/12/09 03:55:58;;;;;;;13.00;11.70;;;;;;;;;;5128344;27;20064;-62
2020/12/09 03:58:24;;;;;;;11.88;10.77;;;;;;;;;;5122129;27;20038;-61
2020/12/09 04:00:50;;;;;;;13.17;11.53;;;;;;;;;;5121895;27;20039;-61
2020/12/09 04:03:16;;;;;;;12.93;11.47;;;;;;;;;;5118943;27;20042;-61
2020/12/09 04:05:42;;;;;;;11.63;10.47;;;;;;;;;;5119396;27;20012;-62
2020/12/09 04:08:08;;;;;;;14.25;12.75;;;;;;;;;;5105218;27;20040;-61
2020/12/09 04:10:34;;;;;;;12.95;11.65;;;;;;;;;;5115110;27;20388;-61
2020/12/09 04:13:00;;;;;;;12.33;11.13;;;;;;;;;;5120909;27;20028;-62
2020/12/09 04:15:27;;;;;;;13.60;12.17;;;;;;;;;;5108489;27;20379;-62
2020/12/09 04:17:53;;;;;;;12.33;11.13;;;;;;;;;;5123928;27;20027;-61
2020/12/09 04:20:19;;;;;;;14.40;12.03;;;;;;;;;;5124847;27;20476;-61
2020/12/09 04:22:45;;;;;;;13.13;11.83;;;;;;;;;;5120500;27;20024;-61
2020/12/09 04:25:11;;;;;;;13.17;11.77;;;;;;;;;;5120141;27;20074;-61
2020/12/09 04:27:37;;;;;;;13.73;12.07;;;;;;;;;;5127870;27;20039;-62
2020/12/09 04:30:04;;;;;;;13.40;12.00;;;;;;;;;;5121112;27;20042;-61
2020/12/09 04:32:30;;;;;;;15.97;12.43;;;;;;;;;;5123717;27;20042;-61
2020/12/09 04:34:57;;;;;;;13.07;11.77;;;;;;;;;;5119280;27;20401;-61
2020/12/09 04:37:25;;;;;;;12.88;11.43;;;;;;;;;;5125653;27;20031;-61
2020/12/09 04:39:52;;;;;;;14.13;12.60;;;;;;;;;;5120349;27;20085;-61
2020/12/09 04:42:22;;;;;;;12.07;10.90;;;;;;;;;;5117647;27;20020;-61
2020/12/09 04:44:48;;;;;;;12.43;11.07;;;;;;;;;;5123103;27;20033;-61
2020/12/09 04:47:19;;;;;;;11.90;10.43;;;;;;;;;;5109905;27;20136;-61
2020/12/09 04:49:48;;;;;;;12.93;11.33;;;;;;;;;;5120291;27;20040;-63
2020/12/09 04:52:33;;;;;;;12.47;11.07;;;;;;;;;;5118650;27;20027;-62
2020/12/09 04:55:06;;;;;;;12.57;11.20;;;;;;;;;;5120338;27;20057;-62
2020/12/09 04:57:32;;;;;;;12.13;10.93;;;;;;;;;;5118645;27;20030;-62
2020/12/09 05:00:01;;;;;;;14.73;12.57;;;;;;;;;;5119177;27;20040;-61
2020/12/09 05:02:34;;;;;;;13.23;11.90;;;;;;;;;;5104588;27;20113;-62
2020/12/09 05:05:01;;;;;;;13.23;11.80;;;;;;;;;;5120468;27;20131;-62
2020/12/09 05:07:31;;;;;;;12.93;11.63;;;;;;;;;;5126380;27;20455;-61
2020/12/09 05:09:59;;;;;;;12.13;10.60;;;;;;;;;;5120656;27;20051;-62
2020/12/09 05:12:26;;;;;;;13.83;12.33;;;;;;;;;;5122028;27;20104;-61
2020/12/09 05:14:52;;;;;;;11.40;10.30;;;;;;;;;;5123358;27;20026;-61
2020/12/09 05:17:19;;;;;;;13.30;11.77;;;;;;;;;;5122566;27;20023;-62
2020/12/09 05:19:46;;;;;;;11.47;10.27;;;;;;;;;;5123518;27;20141;-61
2020/12/09 05:22:21;;;;;;;13.53;11.90;;;;;;;;;;5118251;27;20027;-61
2020/12/09 05:24:47;;;;;;;12.02;10.75;;;;;;;;;;5120265;27;20019;-62
2020/12/09 05:27:14;;;;;;;11.90;10.77;;;;;;;;;;5117225;27;20039;-61
2020/12/09 05:29:54;;;;;;;12.67;11.37;;;;;;;;;;5124850;27;20110;-62
2020/12/09 05:32:20;;;;;;;11.03;9.90;;;;;;;;;;5121566;27;20110;-61
2020/12/09 05:34:46;;;;;;;11.63;10.47;;;;;;;;;;5124268;27;20035;-61
2020/12/09 05:37:13;;;;;;;12.17;10.97;;;;;;;;;;5125060;27;20035;-61
2020/12/09 05:39:49;;;;;;;11.63;10.53;;;;;;;;;;5125491;27;20034;-62
2020/12/09 05:42:16;;;;;;;10.73;9.43;;;;;;;;;;5117670;27;20027;-63
2020/12/09 05:44:43;;;;;;;10.70;9.37;;;;;;;;;;5123163;27;20030;-62
2020/12/09 05:47:09;;;;;;;10.63;9.60;;;;;;;;;;5120722;27;20027;-61
2020/12/09 05:49:39;;;;;;;9.17;8.27;;;;;;;;;;5124339;27;20403;-61
2020/12/09 05:52:05;;;;;;;9.70;8.70;;;;;;;;;;5120712;27;20126;-61
2020/12/09 05:54:31;;;;;;;9.70;8.70;;;;;;;;;;5127666;27;20011;-62
2020/12/09 05:56:57;;;;;;;9.13;8.10;;;;;;;;;;5125200;27;20032;-61
2020/12/09 05:59:33;;;;;;;9.23;8.33;;;;;;;;;;5130405;27;20043;-62
2020/12/09 06:02:06;;;;;;;11.03;9.90;;;;;;;;;;5124181;27;20031;-62
2020/12/09 06:04:48;;;;;;;9.63;8.40;;;;;;;;;;5126470;27;20027;-61
2020/12/09 06:07:14;;;;;;;11.38;9.25;;;;;;;;;;5128652;27;23603;-62
2020/12/09 06:09:41;;;;;;;11.73;9.87;;;;;;;;;;5130828;27;20026;-61
2020/12/09 06:12:07;;;;;;;11.30;9.70;;;;;;;;;;5124868;27;20023;-62
2020/12/09 06:14:33;;;;;;;11.50;10.17;;;;;;;;;;5109696;27;20395;-61
2020/12/09 06:17:00;;;;;;;14.13;11.97;;;;;;;;;;5129870;27;20027;-61
2020/12/09 06:19:26;;;;;;;13.67;12.27;;;;;;;;;;5122752;27;20031;-61
2020/12/09 06:21:56;;;;;;;14.10;11.80;;;;;;;;;;5130017;27;20664;-61
2020/12/09 06:24:22;;;;;;;14.37;12.87;;;;;;;;;;5123039;27;20031;-61
2020/12/09 06:26:51;;;;;;;14.63;12.65;;;;;;;;;;5129689;27;20050;-61
2020/12/09 06:29:24;;;;;;;13.57;11.75;;;;;;;;;;5125689;27;20061;-61
2020/12/09 06:32:00;;;;;;;14.63;13.13;;;;;;;;;;5131590;27;20027;-60
2020/12/09 06:34:26;;;;;;;15.20;12.67;;;;;;;;;;5124563;27;20043;-61
2020/12/09 06:37:11;;;;;;;16.70;14.00;;;;;;;;;;5111995;27;20035;-62
2020/12/09 06:39:37;;;;;;;15.27;13.67;;;;;;;;;;5124370;27;20483;-61
2020/12/09 06:42:03;;;;;;;16.07;13.63;;;;;;;;;;5109883;27;20325;-61
2020/12/09 06:44:30;;;;;;;17.70;14.50;;;;;;;;;;5104024;27;20027;-62
2020/12/09 06:46:56;;;;;;;15.50;13.50;;;;;;;;;;5128943;27;20115;-62
2020/12/09 06:49:32;;;;;;;17.97;15.33;;;;;;;;;;5125621;27;20019;-61
2020/12/09 06:51:59;;;;;;;17.07;13.97;;;;;;;;;;5128123;27;20020;-61
2020/12/09 06:54:37;;;;;;;20.43;14.87;;;;;;;;;;5123815;27;20062;-62
2020/12/09 06:57:14;;;;;;;21.53;15.03;;;;;;;;;;5127874;27;20096;-61
2020/12/09 06:59:41;;;;;;;14.87;13.07;;;;;;;;;;5123233;27;20070;-61
2020/12/09 07:02:08;;;;;;;18.10;15.00;;;;;;;;;;5121408;27;20023;-61
2020/12/09 07:04:52;;;;;;;17.13;14.30;;;;;;;;;;5121215;27;20196;-61
2020/12/09 07:07:37;;;;;;;17.90;13.88;;;;;;;;;;5126265;27;20888;-61
2020/12/09 07:10:10;;;;;;;16.67;14.85;;;;;;;;;;5118689;27;20019;-61
2020/12/09 07:12:36;;;;;;;19.37;14.57;;;;;;;;;;5124776;27;20027;-61
2020/12/09 07:15:02;;;;;;;18.83;14.40;;;;;;;;;;5120365;27;20049;-62
2020/12/09 07:17:29;;;;;;;15.13;13.60;;;;;;;;;;5130105;27;20164;-61
2020/12/09 07:19:56;;;;;;;17.20;14.67;;;;;;;;;;5125140;27;20030;-61
2020/12/09 07:22:22;;;;;;;16.40;13.33;;;;;;;;;;5128314;27;20087;-61
2020/12/09 07:24:48;;;;;;;19.40;14.47;;;;;;;;;;5127072;27;20030;-61
2020/12/09 07:27:14;;;;;;;15.23;13.63;;;;;;;;;;5121571;27;20035;-61
2020/12/09 07:29:41;;;;;;;17.43;13.87;;;;;;;;;;5122078;27;20420;-61
2020/12/09 07:32:08;;;;;;;20.33;15.23;;;;;;;;;;5121335;27;20030;-62
2020/12/09 07:34:35;;;;;;;20.30;15.07;;;;;;;;;;5119702;27;20491;-61
2020/12/09 07:37:01;;;;;;;20.13;15.70;;;;;;;;;;5103269;27;20094;-61
2020/12/09 07:39:32;;;;;;;19.73;14.47;;;;;;;;;;5129647;27;20133;-61
2020/12/09 07:41:59;;;;;;;18.90;15.25;;;;;;;;;;5121512;27;20036;-61
2020/12/09 07:44:25;;;;;;;17.27;14.90;;;;;;;;;;5130185;27;20487;-61
2020/12/09 07:46:52;;;;;;;21.43;15.80;;;;;;;;;;5120456;27;20143;-61
2020/12/09 07:49:18;;;;;;;18.63;16.63;;;;;;;;;;5124979;27;20062;-61
2020/12/09 07:51:44;;;;;;;19.63;15.80;;;;;;;;;;5124697;27;20123;-62
2020/12/09 07:54:11;;;;;;;19.23;15.90;;;;;;;;;;5126375;27;20027;-61
2020/12/09 07:56:37;;;;;;;20.07;16.07;;;;;;;;;;5122260;27;20019;-62
2020/12/09 07:59:03;;;;;;;21.17;16.47;;;;;;;;;;5115206;27;20056;-62
2020/12/09 08:01:29;;;;;;;18.20;16.23;;;;;;;;;;5118637;27;20098;-61
2020/12/09 08:03:55;;;;;;;20.00;16.30;;;;;;;;;;5126951;27;20054;-61
2020/12/09 08:06:22;;;;;;;21.97;17.63;;;;;;;;;;5104102;27;20028;-62
2020/12/09 08:08:50;;;;;;;21.00;17.40;;;;;;;;;;5102198;27;20421;-62
2020/12/09 08:11:17;;;;;;;19.80;16.67;;;;;;;;;;5124453;27;20023;-61
2020/12/09 08:13:43;;;;;;;20.67;16.97;;;;;;;;;;5119947;27;20062;-62
2020/12/09 08:16:14;;;;;;;22.23;17.67;;;;;;;;;;5115115;27;20055;-61
2020/12/09 08:18:42;;;;;;;20.63;17.30;;;;;;;;;;5116412;27;20031;-63
2020/12/09 08:21:09;;;;;;;22.40;17.17;;;;;;;;;;5102158;27;20103;-62
2020/12/09 08:23:38;;;;;;;20.03;16.53;;;;;;;;;;5123710;27;20031;-61
2020/12/09 08:26:04;;;;;;;22.30;17.07;;;;;;;;;;5126068;27;20035;-61
2020/12/09 08:28:33;;;;;;;22.30;18.13;;;;;;;;;;5120178;27;20035;-61
2020/12/09 08:30:59;;;;;;;22.33;18.50;;;;;;;;;;5127820;27;20403;-61
2020/12/09 08:33:26;;;;;;;22.63;18.90;;;;;;;;;;5120858;27;20745;-60
2020/12/09 08:35:59;;;;;;;21.37;17.93;;;;;;;;;;5128121;27;20184;-61
2020/12/09 08:38:31;;;;;;;21.27;17.70;;;;;;;;;;5122604;27;20027;-61
2020/12/09 08:40:59;;;;;;;25.47;18.60;;;;;;;;;;5131788;27;20035;-61
2020/12/09 08:43:29;;;;;;;26.00;18.93;;;;;;;;;;5120457;27;20559;-61
2020/12/09 08:45:57;;;;;;;20.90;16.57;;;;;;;;;;5128783;27;20494;-62
2020/12/09 08:48:23;;;;;;;21.07;16.87;;;;;;;;;;5103696;27;20035;-61
2020/12/09 08:50:51;;;;;;;18.33;15.93;;;;;;;;;;5124220;27;20023;-62
2020/12/09 08:53:17;;;;;;;21.97;16.67;;;;;;;;;;5128106;27;20081;-62
2020/12/09 08:55:44;;;;;;;22.87;17.37;;;;;;;;;;5116643;27;20482;-62
2020/12/09 08:58:10;;;;;;;22.53;18.00;;;;;;;;;;5107880;27;20035;-62
2020/12/09 09:00:38;;;;;;;22.13;17.57;;;;;;;;;;5120532;27;20062;-62
2020/12/09 09:03:05;;;;;;;26.43;19.17;;;;;;;;;;5120533;27;20064;-62
2020/12/09 09:05:31;;;;;;;27.60;19.20;;;;;;;;;;5111395;27;20035;-62
2020/12/09 09:07:57;;;;;;;23.40;17.87;;;;;;;;;;5121026;27;20040;-62
2020/12/09 09:10:24;;;;;;;24.40;18.97;;;;;;;;;;5114216;27;20441;-62
2020/12/09 09:12:50;;;;;;;26.13;18.43;;;;;;;;;;5120081;27;20556;-62
2020/12/09 09:15:16;;;;;;;27.13;19.27;;;;;;;;;;5098209;27;20054;-61
2020/12/09 09:17:42;;;;;;;32.60;20.70;;;;;;;;;;5123061;27;20063;-63
2020/12/09 09:20:08;;;;;;;36.83;22.87;;;;;;;;;;5117818;27;20019;-63
2020/12/09 09:22:34;;;;;;;30.73;20.40;;;;;;;;;;5120977;27;20048;-62
2020/12/09 09:25:00;;;;;;;31.50;20.93;;;;;;;;;;5121806;27;20031;-62
2020/12/09 09:27:26;;;;;;;26.77;19.77;;;;;;;;;;5123169;27;20031;-63
2020/12/09 09:29:53;;;;;;;28.70;19.70;;;;;;;;;;5120570;27;20031;-62
2020/12/09 09:32:20;;;;;;;28.10;20.30;;;;;;;;;;5123119;27;20066;-62
2020/12/09 09:34:46;;;;;;;23.50;18.07;;;;;;;;;;5122803;27;20551;-62
2020/12/09 09:37:12;;;;;;;28.57;20.60;;;;;;;;;;5118302;27;20035;-62
2020/12/09 09:39:38;;;;;;;24.43;19.43;;;;;;;;;;5127003;27;20024;-63
2020/12/09 09:42:04;;;;;;;25.70;19.03;;;;;;;;;;5118899;27;20035;-63
2020/12/09 09:44:31;;;;;;;28.20;20.40;;;;;;;;;;5126438;27;20027;-63
2020/12/09 09:47:00;;;;;;;27.77;18.90;;;;;;;;;;5121776;27;20499;-62
2020/12/09 09:49:26;;;;;;;27.40;20.03;;;;;;;;;;5126155;27;20388;-63
2020/12/09 09:51:53;;;;;;;26.33;19.20;;;;;;;;;;5122099;27;20099;-62
2020/12/09 09:54:22;;;;;;;23.03;18.90;;;;;;;;;;5110393;27;20414;-63
2020/12/09 09:56:51;;;;;;;23.63;18.53;;;;;;;;;;5120666;27;20110;-63
2020/12/09 09:59:17;;;;;;;24.50;18.93;;;;;;;;;;5124637;27;20039;-63
2020/12/09 10:01:43;;;;;;;24.63;19.33;;;;;;;;;;5120416;27;20024;-62
2020/12/09 10:04:09;;;;;;;21.92;18.08;;;;;;;;;;5108595;27;20100;-62
2020/12/09 10:06:36;;;;;;;24.73;18.60;;;;;;;;;;5123444;27;20046;-62
2020/12/09 10:09:04;;;;;;;23.03;18.30;;;;;;;;;;5124787;27;20058;-62
2020/12/09 10:11:30;;;;;;;24.23;18.73;;;;;;;;;;5105323;27;20039;-62
2020/12/09 10:13:57;;;;;;;22.70;17.53;;;;;;;;;;5127886;27;20071;-62
2020/12/09 10:16:25;;;;;;;24.80;18.87;;;;;;;;;;5123598;27;20070;-62
2020/12/09 10:18:51;;;;;;;25.10;18.57;;;;;;;;;;5118893;27;20054;-62
2020/12/09 10:21:24;;;;;;;23.52;18.90;;;;;;;;;;5127539;27;20019;-62
2020/12/09 10:23:50;;;;;;;23.88;18.45;;;;;;;;;;5121090;27;20380;-62
2020/12/09 10:26:16;;;;;;;21.15;17.52;;;;;;;;;;5127128;27;20023;-61
2020/12/09 10:28:43;;;;;;;31.03;18.87;;;;;;;;;;5122280;27;20035;-62
2020/12/09 10:31:09;;;;;;;23.57;18.33;;;;;;;;;;5122774;27;20072;-62
2020/12/09 10:33:35;;;;;;;21.00;17.37;;;;;;;;;;5102145;27;20433;-62
2020/12/09 10:36:01;;;;;;;21.50;16.65;;;;;;;;;;5124177;27;20098;-62
2020/12/09 10:38:27;;;;;;;22.30;17.45;;;;;;;;;;5121629;27;20369;-62
2020/12/09 10:40:53;;;;;;;20.98;16.65;;;;;;;;;;5125290;27;20081;-61
2020/12/09 10:43:19;;;;;;;25.03;17.43;;;;;;;;;;5120843;27;20034;-61
2020/12/09 10:45:45;;;;;;;21.05;18.05;;;;;;;;;;5126906;27;20483;-62
2020/12/09 10:48:11;;;;;;;21.75;17.67;;;;;;;;;;5123113;27;20039;-62
2020/12/09 10:50:38;;;;;;;21.27;16.95;;;;;;;;;;5127314;27;20031;-62
2020/12/09 10:53:04;;;;;;;22.53;16.93;;;;;;;;;;5127717;27;20465;-62
2020/12/09 10:55:31;;;;;;;23.08;18.05;;;;;;;;;;5129972;27;20027;-62
2020/12/09 10:57:57;;;;;;;22.47;19.23;;;;;;;;;;5129075;27;20019;-62
2020/12/09 11:00:23;;;;;;;23.13;17.42;;;;;;;;;;5120831;27;20073;-62
2020/12/09 11:02:50;;;;;;;22.02;16.98;;;;;;;;;;5120417;27;20035;-62
2020/12/09 11:05:16;;;;;;;23.77;18.20;;;;;;;;;;5114795;27;20031;-62
2020/12/09 11:07:42;;;;;;;21.87;17.13;;;;;;;;;;5119696;27;20100;-62
2020/12/09 11:10:08;;;;;;;20.60;15.97;;;;;;;;;;5099401;27;20027;-65
2020/12/09 11:12:34;;;;;;;26.13;19.07;;;;;;;;;;5123284;27;20041;-62
2020/12/09 11:15:00;;;;;;;22.33;17.45;;;;;;;;;;5114849;27;20142;-62
2020/12/09 11:17:26;;;;;;;21.70;17.20;;;;;;;;;;5118505;27;20031;-61
2020/12/09 11:19:52;;;;;;;23.20;18.60;;;;;;;;;;5117161;27;20575;-61
2020/12/09 11:22:18;;;;;;;22.50;17.83;;;;;;;;;;5120717;27;20042;-62
2020/12/09 11:24:44;;;;;;;23.60;18.87;;;;;;;;;;5117881;27;20150;-62
2020/12/09 11:27:10;;;;;;;24.60;18.93;;;;;;;;;;5100252;27;20496;-62
2020/12/09 11:29:37;;;;;;;28.13;21.40;;;;;;;;;;5105934;27;20015;-62
2020/12/09 11:32:04;;;;;;;27.07;19.43;;;;;;;;;;5120389;27;20027;-61
2020/12/09 11:34:30;;;;;;;24.03;19.20;;;;;;;;;;5105235;27;20098;-61
2020/12/09 11:37:00;;;;;;;24.40;18.87;;;;;;;;;;5117905;27;20392;-61
2020/12/09 11:39:27;;;;;;;23.53;18.83;;;;;;;;;;5124483;27;20503;-62
2020/12/09 11:41:53;;;;;;;30.80;19.93;;;;;;;;;;5104719;27;20019;-62
2020/12/09 11:44:19;;;;;;;30.77;21.50;;;;;;;;;;5123450;27;20080;-61
2020/12/09 11:46:45;;;;;;;27.00;19.97;;;;;;;;;;5119641;27;20046;-62
2020/12/09 11:49:11;;;;;;;24.57;19.03;;;;;;;;;;5102326;27;20032;-62
2020/12/09 11:51:37;;;;;;;28.87;20.60;;;;;;;;;;5118832;27;20075;-61
2020/12/09 11:54:03;;;;;;;28.53;20.10;;;;;;;;;;5119633;27;20400;-62
2020/12/09 11:56:29;;;;;;;27.90;20.53;;;;;;;;;;5120121;27;20046;-61
2020/12/09 11:58:56;;;;;;;25.43;20.00;;;;;;;;;;5125034;27;20027;-62
2020/12/09 12:01:23;;;;;;;27.43;21.27;;;;;;;;;;5123645;27;20523;-62
2020/12/09 12:03:49;;;;;;;27.80;20.07;;;;;;;;;;5123570;27;20411;-62
2020/12/09 12:06:20;;;;;;;25.57;20.60;;;;;;;;;;5121004;27;20027;-62
2020/12/09 12:08:46;;;;;;;32.70;20.40;;;;;;;;;;5121288;27;20071;-62
2020/12/09 12:11:17;;;;;;;30.50;21.17;;;;;;;;;;5121681;27;20047;-62
2020/12/09 12:13:43;;;;;;;31.97;20.80;;;;;;;;;;5121126;27;20023;-62
2020/12/09 12:16:16;;;;;;;31.10;22.57;;;;;;;;;;5125963;27;20012;-63
2020/12/09 12:18:43;;;;;;;28.33;21.13;;;;;;;;;;5123767;27;20031;-62
2020/12/09 12:24:13;;;;;;;32.30;22.57;;;;;;;;;;5124310;27;20149;-62
2020/12/09 12:26:38;;;;;;;34.87;22.80;;;;;;;;;;5127498;27;20114;-62
2020/12/09 12:29:04;;;;;;;26.07;19.33;;;;;;;;;;5125236;27;20490;-62
2020/12/09 12:31:30;;;;;;;24.17;19.43;;;;;;;;;;5128756;27;20034;-62
2020/12/09 12:33:56;;;;;;;28.77;19.30;;;;;;;;;;5123063;27;20605;-62
2020/12/09 12:36:23;;;;;;;26.30;19.03;;;;;;;;;;5112273;27;20023;-62
2020/12/09 12:38:49;;;;;;;22.70;16.90;;;;;;;;;;5124481;27;20107;-62
2020/12/09 12:41:15;;;;;;;22.13;17.80;;;;;;;;;;5129372;27;20020;-62
2020/12/09 12:43:41;;;;;;;22.93;16.53;;;;;;;;;;5124886;27;20019;-61
2020/12/09 12:46:10;;;;;;;18.80;14.97;;;;;;;;;;5127318;27;20114;-62
2020/12/09 12:48:36;;;;;;;24.40;15.98;;;;;;;;;;5126272;27;20035;-62
2020/12/09 12:51:02;;;;;;;22.67;16.87;;;;;;;;;;5114519;27;20030;-62
2020/12/09 12:53:28;;;;;;;19.95;14.05;;;;;;;;;;5124649;27;20414;-62
2020/12/09 12:55:55;;;;;;;20.10;15.93;;;;;;;;;;5129781;27;20401;-62
2020/12/09 12:58:21;;;;;;;21.70;15.95;;;;;;;;;;5124148;27;20023;-62
2020/12/09 13:00:47;;;;;;;19.10;15.60;;;;;;;;;;5125660;27;20127;-62
2020/12/09 13:03:13;;;;;;;21.83;15.30;;;;;;;;;;5119547;27;20025;-62
2020/12/09 13:05:39;;;;;;;23.90;17.38;;;;;;;;;;5126333;27;20780;-63
2020/12/09 13:08:05;;;;;;;21.43;16.93;;;;;;;;;;5104729;27;20062;-62
2020/12/09 13:10:31;;;;;;;23.33;17.83;;;;;;;;;;5122294;27;20039;-62
2020/12/09 13:12:57;;;;;;;24.53;17.90;;;;;;;;;;5109271;27;20038;-62
2020/12/09 13:15:23;;;;;;;24.20;17.83;;;;;;;;;;5116103;27;20020;-62
2020/12/09 13:17:49;;;;;;;20.00;16.53;;;;;;;;;;5122974;27;20050;-63
2020/12/09 13:20:15;;;;;;;21.92;17.52;;;;;;;;;;5121339;27;20020;-62
2020/12/09 13:25:45;;;;;;;19.38;16.27;;;;;;;;;;5117145;27;20046;-62
2020/12/09 13:28:11;;;;;;;20.53;16.57;;;;;;;;;;5127350;27;20035;-63
2020/12/09 13:30:37;;;;;;;20.13;16.33;;;;;;;;;;5124831;27;20451;-62
2020/12/09 13:33:04;;;;;;;19.90;16.73;;;;;;;;;;5127155;27;20541;-62
2020/12/09 13:35:31;;;;;;;22.73;17.73;;;;;;;;;;5122469;27;20027;-62
2020/12/09 13:37:58;;;;;;;23.27;17.75;;;;;;;;;;5126663;27;20027;-62
2020/12/09 13:40:24;;;;;;;16.60;13.60;;;;;;;;;;5121604;27;20026;-62
2020/12/09 13:42:50;;;;;;;17.57;14.83;;;;;;;;;;5125945;27;20560;-62
2020/12/09 13:45:16;;;;;;;19.27;14.60;;;;;;;;;;5128259;27;20019;-62
2020/12/09 13:47:42;;;;;;;18.87;15.77;;;;;;;;;;5124944;27;20548;-62
2020/12/09 13:50:09;;;;;;;22.60;15.40;;;;;;;;;;5124990;27;20035;-62
2020/12/09 13:52:37;;;;;;;18.10;14.30;;;;;;;;;;5128139;27;20392;-61
2020/12/09 13:55:04;;;;;;;20.50;17.17;;;;;;;;;;5128981;27;20023;-62
2020/12/09 13:57:30;;;;;;;20.43;16.00;;;;;;;;;;5120956;27;20114;-62
2020/12/09 13:59:56;;;;;;;20.67;17.57;;;;;;;;;;5126051;27;20043;-62
2020/12/09 14:02:22;;;;;;;21.20;17.15;;;;;;;;;;5107330;28;20032;-62
2020/12/09 14:04:48;;;;;;;19.27;15.50;;;;;;;;;;5124087;27;20027;-61
2020/12/09 14:07:14;;;;;;;21.07;16.53;;;;;;;;;;5119987;27;20445;-61
2020/12/09 14:09:40;;;;;;;20.97;17.43;;;;;;;;;;5120265;27;20030;-62
2020/12/09 14:12:06;;;;;;;25.87;19.20;;;;;;;;;;5116712;27;20050;-62
2020/12/09 14:14:33;;;;;;;28.23;21.23;;;;;;;;;;5118969;27;20502;-62
2020/12/09 14:17:01;;;;;;;26.77;19.60;;;;;;;;;;5120259;27;20107;-62
2020/12/09 14:19:38;;;;;;;28.98;22.15;;;;;;;;;;5121679;27;20053;-62
2020/12/09 14:22:05;;;;;;;30.50;21.43;;;;;;;;;;5122996;27;20024;-61
2020/12/09 14:24:33;;;;;;;30.03;21.80;;;;;;;;;;5121657;27;20472;-62
2020/12/09 14:26:59;;;;;;;36.40;23.63;;;;;;;;;;5116435;27;20039;-62